CDU4 weather

Springdale/Davis Pond Seaplane Base
Springdale, Newfoundland and Labrador, Canada

Public forecast

Using degrees Celsius for public forecast. Weather courtesy of forecast.io.

METAR (pilot weather report)

Closest report is Deer Lake Airport, 55.7 nm (103.2 km) WSW. Retrieved 2019/09/17 18:00 UTC (26 minutes ago):

CYDF 171800Z 34006KT 310V020 15SM BKN037 11/04 A2990 RMK SC8 SLP127

TAF (pilot weather forecast)

Closest forecast is Deer Lake Airport, 55.7 nm (103.2 km) WSW. Retrieved 2019/09/17 14:42 UTC (4 hours ago):

TAF CYDF 171340Z 1714/1802 36008KT P6SM BKN030 TEMPO 1714/1724 BKN020 OVC050 BECMG 1715/1717 34015G25KT FM180000 35010G25KT P6SM BKN020 OVC040 RMK NXT FCST BY 172000Z